createdAt,value
2023-04-18T00:03:22.555Z,28.40
2023-04-18T00:08:27.916Z,24.20
2023-04-18T00:13:32.095Z,28.40
2023-04-18T00:18:36.358Z,22.60
2023-04-18T00:23:40.024Z,34.80
2023-04-18T00:28:43.970Z,25.40
2023-04-18T00:33:47.530Z,25.50
2023-04-18T00:38:52.489Z,24.00
2023-04-18T00:43:56.612Z,22.70
2023-04-18T00:49:00.968Z,24.00
2023-04-18T00:54:06.520Z,22.80
2023-04-18T00:59:11.374Z,21.70
2023-04-18T01:04:16.584Z,23.60
2023-04-18T01:09:21.267Z,23.90
2023-04-18T01:14:25.269Z,29.10
2023-04-18T01:19:29.100Z,31.10
2023-04-18T01:24:32.969Z,32.50
2023-04-18T01:29:38.883Z,22.90
2023-04-18T01:34:42.824Z,23.60
2023-04-18T01:39:47.564Z,27.60
2023-04-18T01:44:51.309Z,24.30
2023-04-18T01:49:55.509Z,21.20
2023-04-18T01:55:01.620Z,22.80
2023-04-18T02:00:08.090Z,25.60
2023-04-18T02:05:21.132Z,24.90
2023-04-18T02:10:25.308Z,34.70
2023-04-18T02:15:29.252Z,22.90
2023-04-18T02:20:33.397Z,25.10
2023-04-18T02:25:38.301Z,24.20
2023-04-18T02:30:42.781Z,23.10
2023-04-18T02:35:46.517Z,27.80
2023-04-18T02:40:50.779Z,34.30
2023-04-18T02:45:54.419Z,24.40
2023-04-18T02:51:03.465Z,25.80
2023-04-18T02:56:09.039Z,27.70
2023-04-18T03:01:35.525Z,23.60
2023-04-18T03:06:49.561Z,23.90
2023-04-18T03:11:55.501Z,35.00
2023-04-18T03:17:03.762Z,25.60
2023-04-18T03:22:12.809Z,24.80
2023-04-18T03:27:21.714Z,28.70
2023-04-18T03:32:26.826Z,25.70
2023-04-18T03:37:30.577Z,28.10
2023-04-18T03:42:35.656Z,26.80
2023-04-18T03:47:39.887Z,21.80
2023-04-18T03:52:43.780Z,35.60
2023-04-18T03:57:48.574Z,23.50
2023-04-18T04:03:00.366Z,26.80
2023-04-18T04:08:07.347Z,26.40
2023-04-18T04:13:11.278Z,23.80
2023-04-18T04:18:15.706Z,23.30
2023-04-18T04:23:20.246Z,23.40
2023-04-18T04:28:25.724Z,24.70
2023-04-18T04:33:35.224Z,28.00
2023-04-18T04:38:41.440Z,28.90
2023-04-18T04:43:46.065Z,23.50
2023-04-18T04:48:52.631Z,22.90
2023-04-18T04:53:56.255Z,21.50
2023-04-18T04:59:00.422Z,36.00
2023-04-18T05:04:12.876Z,22.50
2023-04-18T05:09:17.012Z,26.40
2023-04-18T05:14:20.714Z,26.40
2023-04-18T05:19:24.805Z,24.70
2023-04-18T05:24:28.368Z,22.30
2023-04-18T05:29:32.285Z,21.20
2023-04-18T05:34:38.584Z,22.20
2023-04-18T05:39:42.893Z,27.70
2023-04-18T05:44:46.525Z,25.20
2023-04-18T05:49:50.268Z,23.00
2023-04-18T05:54:53.935Z,26.20
2023-04-18T05:59:57.574Z,27.00
2023-04-18T06:05:01.525Z,23.30
2023-04-18T06:10:12.759Z,21.30
2023-04-18T06:15:16.523Z,26.90
2023-04-18T06:20:20.338Z,24.10
2023-04-18T06:25:25.582Z,29.80
2023-04-18T06:30:29.297Z,25.90
2023-04-18T06:35:34.872Z,26.30
2023-04-18T06:40:38.786Z,29.60
2023-04-18T06:45:42.889Z,22.30
2023-04-18T06:50:46.960Z,22.50
2023-04-18T06:55:50.964Z,29.20
2023-04-18T07:00:54.675Z,23.80
2023-04-18T07:05:58.977Z,26.30
2023-04-18T07:11:02.709Z,24.30
2023-04-18T07:16:09.281Z,23.00
2023-04-18T07:21:12.951Z,27.30
2023-04-18T07:26:16.730Z,22.10
2023-04-18T07:31:20.513Z,21.40
2023-04-18T07:36:25.358Z,28.30
2023-04-18T07:41:29.084Z,22.30
2023-04-18T07:46:33.429Z,36.30
2023-04-18T07:51:37.266Z,23.10
2023-04-18T07:56:40.958Z,24.40
2023-04-18T08:01:44.727Z,22.80
2023-04-18T08:06:59.742Z,24.40
2023-04-18T08:12:03.653Z,26.00
2023-04-18T08:17:07.414Z,25.10
2023-04-18T08:22:11.660Z,21.40
2023-04-18T08:27:15.271Z,23.10
2023-04-18T08:32:18.970Z,21.20
2023-04-18T08:37:22.645Z,23.40
2023-04-18T08:42:27.127Z,25.90
2023-04-18T08:47:31.266Z,20.30
2023-04-18T08:52:37.302Z,25.30
2023-04-18T08:57:41.508Z,29.40
2023-04-18T09:02:46.485Z,24.00
2023-04-18T09:07:52.433Z,26.50
2023-04-18T09:12:57.508Z,18.70
2023-04-18T09:18:02.230Z,20.00
2023-04-18T09:23:09.890Z,24.50
2023-04-18T09:28:24.433Z,21.10
2023-04-18T09:33:31.984Z,23.60
2023-04-18T09:38:42.037Z,26.00
2023-04-18T09:43:47.351Z,22.60
2023-04-18T09:48:51.659Z,23.40
2023-04-18T09:53:56.087Z,19.80
2023-04-18T09:59:07.710Z,20.60
2023-04-18T10:04:13.459Z,25.90
2023-04-18T10:09:21.233Z,17.70
2023-04-18T10:14:27.395Z,22.30
2023-04-18T10:19:32.165Z,16.80
2023-04-18T10:24:52.336Z,23.40
2023-04-18T10:29:56.225Z,16.00
2023-04-18T10:35:00.197Z,17.40
2023-04-18T10:40:06.980Z,18.10
2023-04-18T10:45:22.960Z,21.90
2023-04-18T10:50:26.682Z,17.90
2023-04-18T10:55:31.604Z,16.80
2023-04-18T11:00:36.673Z,23.90
2023-04-18T11:05:40.491Z,16.60
2023-04-18T11:10:57.754Z,21.10
2023-04-18T11:16:01.678Z,16.90
2023-04-18T11:21:06.022Z,17.20
2023-04-18T11:26:11.335Z,21.30
2023-04-18T11:31:16.573Z,19.10
2023-04-18T11:36:20.292Z,16.50
2023-04-18T11:41:24.017Z,16.10
2023-04-18T11:46:38.777Z,14.50
2023-04-18T11:51:45.721Z,16.10
2023-04-18T11:56:50.405Z,18.70
2023-04-18T12:02:14.840Z,22.90
2023-04-18T12:07:35.483Z,19.30
2023-04-18T12:12:48.746Z,20.20
2023-04-18T12:17:52.831Z,16.40
2023-04-18T12:22:57.184Z,15.80
2023-04-18T12:28:03.639Z,16.60
2023-04-18T12:33:08.848Z,27.00
2023-04-18T12:38:13.122Z,20.00
2023-04-18T12:43:16.897Z,21.00
2023-04-18T12:48:20.562Z,22.10
2023-04-18T12:53:24.336Z,16.10
2023-04-18T12:58:28.143Z,19.10
2023-04-18T13:03:40.310Z,19.80
2023-04-18T13:08:47.175Z,16.20
2023-04-18T13:13:51.921Z,17.30
2023-04-18T13:18:56.970Z,18.60
2023-04-18T13:24:00.802Z,18.90
2023-04-18T13:29:04.693Z,17.20
2023-04-18T13:34:08.249Z,15.70
2023-04-18T13:39:11.974Z,15.20
2023-04-18T13:44:17.071Z,20.90
2023-04-18T13:49:20.812Z,14.00
2023-04-18T13:54:26.024Z,18.20
2023-04-18T13:59:31.862Z,12.50
2023-04-18T14:04:35.870Z,13.20
2023-04-18T14:09:39.577Z,12.90
2023-04-18T14:14:43.373Z,18.90
2023-04-18T14:19:48.909Z,23.40
2023-04-18T14:24:53.931Z,20.30
2023-04-18T14:29:59.229Z,18.40
2023-04-18T14:35:17.040Z,21.90
2023-04-18T14:40:23.976Z,18.90
2023-04-18T14:45:28.164Z,14.50
2023-04-18T14:50:32.288Z,22.80
2023-04-18T14:55:37.050Z,18.30
2023-04-18T15:00:41.462Z,20.70
2023-04-18T15:05:47.809Z,17.00
2023-04-18T15:10:51.501Z,14.10
2023-04-18T15:15:56.434Z,12.50
2023-04-18T15:21:00.712Z,16.30
2023-04-18T15:26:04.844Z,18.50
2023-04-18T15:31:09.174Z,15.30
2023-04-18T15:36:15.260Z,16.30
2023-04-18T15:41:19.341Z,16.60
2023-04-18T15:46:24.387Z,15.50
2023-04-18T15:51:29.761Z,16.30
2023-04-18T15:56:36.149Z,16.40
2023-04-18T16:01:40.194Z,16.10
2023-04-18T16:06:43.923Z,20.10
2023-04-18T16:11:47.940Z,18.40
2023-04-18T16:16:53.502Z,16.70
2023-04-18T16:22:00.417Z,21.20
2023-04-18T16:27:04.581Z,22.80
2023-04-18T16:32:08.563Z,18.40
2023-04-18T16:37:14.743Z,23.20
2023-04-18T16:42:19.838Z,22.60
2023-04-18T16:47:23.960Z,19.20
2023-04-18T16:52:27.894Z,17.70
2023-04-18T16:57:31.701Z,22.00
2023-04-18T17:02:35.570Z,20.90
2023-04-18T17:07:39.642Z,22.60
2023-04-18T17:12:45.241Z,18.50
2023-04-18T17:17:55.462Z,23.20
2023-04-18T17:22:59.389Z,21.30
2023-04-18T17:28:03.307Z,28.40
2023-04-18T17:33:07.362Z,18.20
2023-04-18T17:38:12.114Z,20.20
2023-04-18T17:43:15.911Z,16.70
2023-04-18T17:48:21.382Z,26.90
2023-04-18T17:53:27.395Z,24.00
2023-04-18T17:58:31.604Z,19.30
2023-04-18T18:03:42.984Z,18.40
2023-04-18T18:08:47.295Z,17.90
2023-04-18T18:13:57.022Z,16.50
2023-04-18T18:19:06.662Z,19.80
2023-04-18T18:24:15.234Z,20.50
2023-04-18T18:29:22.317Z,16.20
2023-04-18T18:34:29.448Z,16.70
2023-04-18T18:39:33.716Z,20.00
2023-04-18T18:44:37.468Z,16.70
2023-04-18T18:49:41.524Z,14.60
2023-04-18T18:54:45.524Z,16.10
2023-04-18T18:59:50.006Z,14.60
2023-04-18T19:04:56.231Z,21.30
2023-04-18T19:10:01.682Z,16.50
2023-04-18T19:15:07.242Z,19.40
2023-04-18T19:20:14.074Z,23.10
2023-04-18T19:25:17.847Z,18.40
2023-04-18T19:30:21.723Z,27.30
2023-04-18T19:35:26.995Z,17.10
2023-04-18T19:40:31.095Z,14.80
2023-04-18T19:45:39.261Z,17.70
2023-04-18T19:50:44.193Z,15.80
2023-04-18T19:55:47.942Z,16.30
2023-04-18T20:00:51.956Z,11.00
2023-04-18T20:05:55.831Z,12.60
2023-04-18T20:10:59.592Z,14.70
2023-04-18T20:16:04.006Z,16.30
2023-04-18T20:21:10.202Z,9.70
2023-04-18T20:26:13.795Z,9.70
2023-04-18T20:31:19.248Z,11.30
2023-04-18T20:36:23.864Z,10.20
2023-04-18T20:41:30.681Z,11.20
2023-04-18T20:46:34.472Z,14.80
2023-04-18T20:51:38.412Z,11.10
2023-04-18T20:56:42.071Z,19.70
2023-04-18T21:01:46.365Z,11.70
2023-04-18T21:06:50.176Z,10.00
2023-04-18T21:11:53.813Z,14.70
2023-04-18T21:16:58.069Z,18.10
2023-04-18T21:22:04.773Z,6.10
2023-04-18T21:27:09.916Z,21.60
2023-04-18T21:32:18.298Z,10.00
2023-04-18T21:37:22.252Z,36.70
2023-04-18T21:42:26.318Z,6.10
2023-04-18T21:47:31.750Z,9.60
2023-04-18T21:52:35.732Z,6.50
2023-04-18T21:57:39.413Z,8.70
2023-04-18T22:02:43.644Z,8.90
2023-04-18T22:07:57.543Z,6.80
2023-04-18T22:13:04.299Z,6.70
2023-04-18T22:18:08.562Z,10.00
2023-04-18T22:23:12.364Z,6.70
2023-04-18T22:28:15.964Z,8.50
2023-04-18T22:33:19.778Z,10.50
2023-04-18T22:38:24.710Z,16.40
2023-04-18T22:43:33.498Z,9.90
2023-04-18T22:48:37.891Z,7.50
2023-04-18T22:53:41.484Z,17.10
2023-04-18T22:58:45.126Z,9.80
2023-04-18T23:03:48.825Z,10.30
2023-04-18T23:08:52.780Z,8.80
2023-04-18T23:13:56.407Z,9.40
2023-04-18T23:19:00.061Z,10.30
2023-04-18T23:24:03.821Z,18.00
2023-04-18T23:29:07.665Z,11.40
2023-04-18T23:34:11.238Z,12.70
2023-04-18T23:39:16.931Z,15.50
2023-04-18T23:44:23.102Z,12.40
2023-04-18T23:49:27.938Z,8.30
2023-04-18T23:54:31.598Z,7.70
2023-04-18T23:59:35.250Z,8.10
